createdAt,value
2019-01-11T00:00:16.174Z,308.7
2019-01-11T00:01:16.320Z,306.7
2019-01-11T00:02:16.223Z,305.8
2019-01-11T00:03:16.243Z,305.4
2019-01-11T00:04:16.283Z,305.2
2019-01-11T00:05:16.243Z,305.1
2019-01-11T00:06:16.236Z,305
2019-01-11T00:07:16.351Z,305
2019-01-11T00:08:16.256Z,305
2019-01-11T00:09:16.267Z,305
2019-01-11T00:10:16.191Z,305
2019-01-11T00:11:16.218Z,305
2019-01-11T00:12:16.282Z,305
2019-01-11T00:13:16.225Z,305
2019-01-11T00:14:16.287Z,305
2019-01-11T00:15:16.236Z,305
2019-01-11T00:16:16.185Z,305
2019-01-11T00:17:16.231Z,305
2019-01-11T00:18:16.305Z,305
2019-01-11T00:19:16.230Z,305
2019-01-11T00:20:17.085Z,305
2019-01-11T00:21:16.263Z,305
2019-01-11T00:22:16.182Z,305
2019-01-11T00:23:16.338Z,305
2019-01-11T00:24:16.241Z,305
2019-01-11T00:25:16.263Z,305
2019-01-11T00:26:16.312Z,305
2019-01-11T00:27:16.203Z,305
2019-01-11T00:28:16.328Z,305
2019-01-11T00:29:16.264Z,305
2019-01-11T00:30:16.260Z,305
2019-01-11T00:31:16.223Z,305
2019-01-11T00:32:16.237Z,305
2019-01-11T00:33:16.232Z,305
2019-01-11T00:34:16.288Z,305
2019-01-11T00:35:16.229Z,305
2019-01-11T00:36:16.344Z,305
2019-01-11T00:37:16.201Z,305
2019-01-11T00:38:16.248Z,305
2019-01-11T00:39:16.256Z,305
2019-01-11T00:40:16.252Z,305
2019-01-11T00:41:16.197Z,305
2019-01-11T00:42:16.242Z,305
2019-01-11T00:43:18.792Z,305
2019-01-11T00:44:16.182Z,305
2019-01-11T00:45:16.223Z,305
2019-01-11T00:46:16.221Z,305
2019-01-11T00:47:16.327Z,305
2019-01-11T00:48:16.233Z,305
2019-01-11T00:49:17.219Z,305
2019-01-11T00:50:16.224Z,305
2019-01-11T00:51:16.247Z,305
2019-01-11T00:52:16.311Z,305
2019-01-11T00:53:16.215Z,305
2019-01-11T00:54:16.255Z,305
2019-01-11T00:55:16.234Z,305
2019-01-11T00:56:16.229Z,305
2019-01-11T00:57:16.313Z,305
2019-01-11T00:58:16.246Z,305
2019-01-11T00:59:16.212Z,305
2019-01-11T01:00:16.176Z,305
2019-01-11T01:01:16.210Z,305
2019-01-11T01:02:16.299Z,305
2019-01-11T01:03:16.226Z,305
2019-01-11T01:04:16.254Z,305
2019-01-11T01:05:16.248Z,305
2019-01-11T01:06:16.285Z,305
2019-01-11T01:07:16.218Z,305
2019-01-11T01:08:16.218Z,305
2019-01-11T01:09:16.203Z,305
2019-01-11T01:10:16.296Z,305
2019-01-11T01:11:16.174Z,305
2019-01-11T01:12:16.252Z,305
2019-01-11T01:13:16.195Z,305
2019-01-11T01:14:16.322Z,305
2019-01-11T01:15:16.225Z,305
2019-01-11T01:16:16.242Z,305
2019-01-11T01:17:16.227Z,305
2019-01-11T01:18:16.216Z,305
2019-01-11T01:19:22.352Z,305
2019-01-11T01:20:16.255Z,305
2019-01-11T01:21:16.250Z,305
2019-01-11T01:22:16.178Z,305
2019-01-11T01:23:16.310Z,305
2019-01-11T01:24:16.231Z,305
2019-01-11T01:25:16.244Z,305
2019-01-11T01:26:16.286Z,305
2019-01-11T01:27:16.177Z,305
2019-01-11T01:28:16.173Z,305
2019-01-11T01:29:16.230Z,305
2019-01-11T01:30:16.305Z,305
2019-01-11T01:31:16.281Z,305
2019-01-11T01:32:16.208Z,305
2019-01-11T01:33:16.141Z,305
2019-01-11T01:34:16.238Z,305
2019-01-11T01:35:16.235Z,305
2019-01-11T01:36:16.303Z,305
2019-01-11T01:37:16.213Z,305
2019-01-11T01:38:16.146Z,305
2019-01-11T01:39:16.212Z,305
2019-01-11T01:40:16.276Z,305
2019-01-11T01:41:16.214Z,305
2019-01-11T01:42:16.207Z,305
2019-01-11T01:43:16.288Z,305
2019-01-11T01:44:16.158Z,305
2019-01-11T01:45:16.281Z,305
2019-01-11T01:46:16.223Z,305
2019-01-11T01:47:16.205Z,305
2019-01-11T01:48:16.207Z,304.1
2019-01-11T01:49:16.130Z,304.6
2019-01-11T01:50:16.284Z,304.8
2019-01-11T01:51:16.223Z,304.9
2019-01-11T01:52:16.209Z,305
2019-01-11T01:53:16.224Z,305
2019-01-11T01:54:16.223Z,305
2019-01-11T01:55:16.194Z,305
2019-01-11T01:56:16.283Z,305
2019-01-11T01:57:16.208Z,305
2019-01-11T01:58:16.206Z,305
2019-01-11T01:59:16.214Z,305
2019-01-11T02:00:16.135Z,305
2019-01-11T02:01:16.239Z,305
2019-01-11T02:02:16.183Z,305
2019-01-11T02:03:16.196Z,305
2019-01-11T02:04:16.187Z,305
2019-01-11T02:05:16.130Z,305
2019-01-11T02:06:16.297Z,305
2019-01-11T02:07:16.221Z,305
2019-01-11T02:08:16.204Z,305
2019-01-11T02:09:16.248Z,305
2019-01-11T02:10:16.193Z,305
2019-01-11T02:11:16.131Z,305
2019-01-11T02:12:16.245Z,305
2019-01-11T02:13:16.201Z,305
2019-01-11T02:14:16.261Z,305
2019-01-11T02:15:16.200Z,305
2019-01-11T02:16:16.156Z,305
2019-01-11T02:17:16.214Z,305
2019-01-11T02:18:16.271Z,305
2019-01-11T02:19:16.308Z,305
2019-01-11T02:20:16.201Z,305
2019-01-11T02:21:16.195Z,305
2019-01-11T02:22:16.146Z,305
2019-01-11T02:23:16.269Z,310.9
2019-01-11T02:24:16.205Z,323.2
2019-01-11T02:25:16.206Z,325.6
2019-01-11T02:26:16.176Z,326.6
2019-01-11T02:27:16.136Z,327.1
2019-01-11T02:28:16.196Z,327.3
2019-01-11T02:29:16.192Z,327.4
2019-01-11T02:30:16.205Z,327.5
2019-01-11T02:31:16.181Z,327.5
2019-01-11T02:32:16.189Z,327.5
2019-01-11T02:33:16.191Z,327.5
2019-01-11T02:34:16.255Z,327.5
2019-01-11T02:35:16.204Z,327.5
2019-01-11T02:36:16.188Z,327.5
2019-01-11T02:37:16.283Z,327.5
2019-01-11T02:38:16.153Z,327.5
2019-01-11T02:39:16.188Z,327.5
2019-01-11T02:40:16.265Z,327.5
2019-01-11T02:41:16.217Z,327.5
2019-01-11T02:42:16.184Z,327.5
2019-01-11T02:43:16.207Z,327.5
2019-01-11T02:44:16.141Z,327.5
2019-01-11T02:45:16.240Z,327.5
2019-01-11T02:46:16.187Z,327.5
2019-01-11T02:47:16.183Z,327.5
2019-01-11T02:48:16.167Z,327.5
2019-01-11T02:49:16.116Z,327.5
2019-01-11T02:50:16.269Z,327.5
2019-01-11T02:51:16.185Z,327.5
2019-01-11T02:52:16.172Z,327.5
2019-01-11T02:53:16.204Z,327.5
2019-01-11T02:54:16.217Z,327.5
2019-01-11T02:55:16.188Z,327.5
2019-01-11T02:56:16.210Z,327.5
2019-01-11T02:57:16.182Z,320.8
2019-01-11T02:58:16.165Z,312.5
2019-01-11T02:59:16.253Z,308.4
2019-01-11T03:00:16.130Z,306.6
2019-01-11T03:01:16.183Z,305.8
2019-01-11T03:02:16.177Z,305.4
2019-01-11T03:03:16.178Z,305.2
2019-01-11T03:04:16.236Z,305.1
2019-01-11T03:05:16.157Z,305
2019-01-11T03:06:16.107Z,305
2019-01-11T03:07:16.183Z,305
2019-01-11T03:08:16.248Z,305
2019-01-11T03:09:16.178Z,305
2019-01-11T03:10:16.173Z,305
2019-01-11T03:11:16.116Z,305
2019-01-11T03:12:16.170Z,305
2019-01-11T03:13:16.253Z,305
2019-01-11T03:14:16.172Z,305
2019-01-11T03:15:16.194Z,305
2019-01-11T03:16:16.121Z,305
2019-01-11T03:17:16.207Z,305
2019-01-11T03:18:16.260Z,305
2019-01-11T03:19:16.189Z,305
2019-01-11T03:20:16.166Z,305
2019-01-11T03:21:16.189Z,305
2019-01-11T03:22:16.149Z,305
2019-01-11T03:23:16.243Z,305
2019-01-11T03:24:16.184Z,305
2019-01-11T03:25:16.152Z,305
2019-01-11T03:26:16.186Z,305
2019-01-11T03:27:16.156Z,305
2019-01-11T03:28:16.234Z,305
2019-01-11T03:29:16.173Z,305
2019-01-11T03:30:16.217Z,305
2019-01-11T03:31:16.258Z,305
2019-01-11T03:32:16.183Z,305
2019-01-11T03:33:16.208Z,305
2019-01-11T03:34:16.191Z,305
2019-01-11T03:35:16.147Z,305
2019-01-11T03:36:16.179Z,305
2019-01-11T03:37:16.158Z,305
2019-01-11T03:38:16.138Z,305
2019-01-11T03:39:16.178Z,305
2019-01-11T03:40:16.156Z,305
2019-01-11T03:41:16.183Z,305
2019-01-11T03:42:16.246Z,305
2019-01-11T03:43:16.175Z,305
2019-01-11T03:44:16.136Z,305
2019-01-11T03:45:16.165Z,305
2019-01-11T03:46:16.241Z,305
2019-01-11T03:47:16.161Z,305
2019-01-11T03:48:16.163Z,305
2019-01-11T03:49:16.095Z,305
2019-01-11T03:50:16.153Z,305
2019-01-11T03:51:16.245Z,305
2019-01-11T03:52:16.157Z,305
2019-01-11T03:53:16.176Z,305
2019-01-11T03:54:16.105Z,305
2019-01-11T03:55:16.154Z,305
2019-01-11T03:56:16.231Z,305
2019-01-11T03:57:16.172Z,305
2019-01-11T03:58:16.184Z,305
2019-01-11T03:59:16.159Z,305
2019-01-11T04:00:16.088Z,305
2019-01-11T04:01:16.239Z,305
2019-01-11T04:02:16.144Z,305
2019-01-11T04:03:16.179Z,305
2019-01-11T04:04:16.155Z,305
2019-01-11T04:05:16.191Z,305
2019-01-11T04:06:16.169Z,305
2019-01-11T04:07:16.146Z,305
2019-01-11T04:08:16.145Z,305
2019-01-11T04:09:16.225Z,305
2019-01-11T04:10:16.243Z,305
2019-01-11T04:11:16.082Z,305
2019-01-11T04:12:16.165Z,305
2019-01-11T04:13:16.170Z,305
2019-01-11T04:14:16.157Z,305
2019-01-11T04:15:16.202Z,305
2019-01-11T04:16:16.143Z,285.2
2019-01-11T04:17:16.150Z,243.4
2019-01-11T04:18:16.169Z,226.2
2019-01-11T04:19:16.218Z,219.8
2019-01-11T04:20:16.155Z,217.2
2019-01-11T04:21:16.110Z,216
2019-01-11T04:22:16.172Z,215.5
2019-01-11T04:23:16.148Z,215.2
2019-01-11T04:24:16.219Z,215.1
2019-01-11T04:25:16.234Z,211
2019-01-11T04:26:16.180Z,197.4
2019-01-11T04:27:16.062Z,194.7
2019-01-11T04:28:16.216Z,193.5
2019-01-11T04:29:16.202Z,193
2019-01-11T04:30:16.207Z,192.7
2019-01-11T04:31:16.162Z,197.6
2019-01-11T04:32:16.207Z,206.9
2019-01-11T04:33:16.077Z,211.3
2019-01-11T04:34:16.179Z,213.3
2019-01-11T04:35:16.160Z,214.2
2019-01-11T04:36:16.233Z,214.6
2019-01-11T04:37:16.126Z,214.8
2019-01-11T04:38:16.094Z,214.9
2019-01-11T04:39:16.147Z,215
2019-01-11T04:40:16.156Z,215
2019-01-11T04:41:16.220Z,215
2019-01-11T04:42:16.134Z,215
2019-01-11T04:43:16.083Z,215
2019-01-11T04:44:16.132Z,215
2019-01-11T04:45:16.154Z,215
2019-01-11T04:46:16.178Z,215
2019-01-11T04:47:17.874Z,215
2019-01-11T04:48:16.143Z,215
2019-01-11T04:49:16.055Z,215
2019-01-11T04:50:16.145Z,215
2019-01-11T04:51:16.183Z,215
2019-01-11T04:52:16.186Z,215
2019-01-11T04:53:16.274Z,215
2019-01-11T04:54:16.109Z,215
2019-01-11T04:55:16.106Z,215
2019-01-11T04:56:16.152Z,215
2019-01-11T04:57:16.136Z,215
2019-01-11T04:58:16.218Z,215
2019-01-11T04:59:16.197Z,215
2019-01-11T05:00:16.133Z,215
2019-01-11T05:01:16.185Z,215
2019-01-11T05:02:16.120Z,215
2019-01-11T05:03:16.194Z,215
2019-01-11T05:04:16.137Z,215
2019-01-11T05:05:16.093Z,215
2019-01-11T05:06:16.054Z,215
2019-01-11T05:07:16.134Z,215
2019-01-11T05:08:16.203Z,215
2019-01-11T05:09:16.105Z,215
2019-01-11T05:10:16.134Z,215
2019-01-11T05:11:17.063Z,215
2019-01-11T05:12:16.131Z,215
2019-01-11T05:13:16.186Z,215
2019-01-11T05:14:16.111Z,215
2019-01-11T05:15:16.166Z,215
2019-01-11T05:16:16.087Z,215
2019-01-11T05:17:16.237Z,215
2019-01-11T05:18:16.132Z,215
2019-01-11T05:19:16.211Z,215
2019-01-11T05:20:20.195Z,215
2019-01-11T05:21:16.151Z,215
2019-01-11T05:22:16.138Z,215
2019-01-11T05:23:16.105Z,215
2019-01-11T05:24:16.122Z,215
2019-01-11T05:25:16.261Z,215
2019-01-11T05:26:16.154Z,215
2019-01-11T05:27:16.058Z,215
2019-01-11T05:28:16.201Z,215
2019-01-11T05:29:16.151Z,215
2019-01-11T05:30:16.123Z,215
2019-01-11T05:31:16.159Z,215
2019-01-11T05:32:16.143Z,215
2019-01-11T05:33:16.138Z,215
2019-01-11T05:34:16.146Z,215
2019-01-11T05:35:16.120Z,215
2019-01-11T05:36:16.190Z,215
2019-01-11T05:37:16.098Z,215.3
2019-01-11T05:38:16.141Z,215.2
2019-01-11T05:39:16.203Z,215.1
2019-01-11T05:40:16.193Z,215
2019-01-11T05:41:16.125Z,215
2019-01-11T05:42:16.115Z,215
2019-01-11T05:43:16.065Z,215
2019-01-11T05:44:16.155Z,215
2019-01-11T05:45:16.113Z,215
2019-01-11T05:46:16.172Z,215
2019-01-11T05:47:16.104Z,215
2019-01-11T05:48:16.208Z,215
2019-01-11T05:49:16.122Z,215
2019-01-11T05:50:16.103Z,215
2019-01-11T05:51:16.119Z,215
2019-01-11T05:52:16.108Z,215
2019-01-11T05:53:16.072Z,215
2019-01-11T05:54:19.091Z,215
2019-01-11T05:55:16.111Z,215
2019-01-11T05:56:16.183Z,215
2019-01-11T05:57:16.091Z,215
2019-01-11T05:58:16.422Z,215
2019-01-11T05:59:16.104Z,215
2019-01-11T06:00:16.112Z,215
2019-01-11T06:01:16.097Z,215
2019-01-11T06:02:16.087Z,215
2019-01-11T06:03:16.376Z,215
2019-01-11T06:04:16.088Z,215
2019-01-11T06:05:16.079Z,215
2019-01-11T06:06:16.076Z,215
2019-01-11T06:07:16.112Z,215
2019-01-11T06:08:16.848Z,215
2019-01-11T06:09:16.056Z,215
2019-01-11T06:10:21.014Z,215
2019-01-11T06:11:16.329Z,215.6
2019-01-11T06:12:16.108Z,215.3
2019-01-11T06:13:16.181Z,215.1
2019-01-11T06:14:16.110Z,215.1
2019-01-11T06:15:16.228Z,215
2019-01-11T06:16:16.112Z,215
2019-01-11T06:17:16.103Z,215
2019-01-11T06:18:16.101Z,215
2019-01-11T06:19:16.108Z,215
2019-01-11T06:20:16.081Z,215
2019-01-11T06:21:17.868Z,215
2019-01-11T06:22:16.069Z,215
2019-01-11T06:23:16.105Z,215
2019-01-11T06:24:16.033Z,215
2019-01-11T06:25:16.113Z,215
2019-01-11T06:26:16.209Z,215
2019-01-11T06:27:16.104Z,215
2019-01-11T06:28:16.251Z,215
2019-01-11T06:29:16.108Z,215
2019-01-11T06:30:16.043Z,215
2019-01-11T06:31:27.290Z,215
2019-01-11T06:32:18.409Z,215
2019-01-11T06:33:16.272Z,215
2019-01-11T06:34:16.210Z,215
2019-01-11T06:35:16.107Z,215
2019-01-11T06:36:16.040Z,215
2019-01-11T06:37:19.388Z,215
2019-01-11T06:38:16.188Z,215.3
2019-01-11T06:39:16.799Z,215.1
2019-01-11T06:40:16.156Z,215.1
2019-01-11T06:41:16.063Z,215
2019-01-11T06:42:16.109Z,215
2019-01-11T06:43:16.490Z,215
2019-01-11T06:44:18.101Z,215
2019-01-11T06:45:19.310Z,215
2019-01-11T06:46:16.064Z,215
2019-01-11T06:47:17.152Z,215
2019-01-11T06:48:17.391Z,215
2019-01-11T06:49:16.103Z,215
2019-01-11T06:50:16.015Z,215
2019-01-11T06:51:16.154Z,215
2019-01-11T06:52:16.019Z,215
2019-01-11T06:53:16.222Z,215
2019-01-11T06:54:19.034Z,215
2019-01-11T06:55:16.108Z,215.3
2019-01-11T06:56:16.013Z,215.1
2019-01-11T06:57:16.106Z,215.1
2019-01-11T06:58:16.143Z,215
2019-01-11T06:59:16.057Z,215
2019-01-11T07:00:16.012Z,215
2019-01-11T07:01:16.145Z,215
2019-01-11T07:02:16.140Z,215
2019-01-11T07:03:16.071Z,215
2019-01-11T07:04:16.156Z,215
2019-01-11T07:05:16.016Z,215
2019-01-11T07:06:16.127Z,215
2019-01-11T07:07:16.049Z,215
2019-01-11T07:08:16.129Z,215
2019-01-11T07:09:16.063Z,215
2019-01-11T07:10:16.121Z,215
2019-01-11T07:11:15.999Z,215
2019-01-11T07:12:16.201Z,215
2019-01-11T07:13:16.069Z,215
2019-01-11T07:14:16.145Z,215
2019-01-11T07:15:16.080Z,215
2019-01-11T07:16:16.089Z,215
2019-01-11T07:17:16.097Z,215
2019-01-11T07:18:16.077Z,215
2019-01-11T07:19:16.163Z,215
2019-01-11T07:20:16.071Z,215
2019-01-11T07:21:16.029Z,215
2019-01-11T07:22:16.955Z,215
2019-01-11T07:23:15.993Z,215.3
2019-01-11T07:24:16.158Z,215.1
2019-01-11T07:25:16.142Z,215.1
2019-01-11T07:26:16.136Z,215
2019-01-11T07:27:16.105Z,215
2019-01-11T07:28:17.284Z,215
2019-01-11T07:29:19.241Z,215
2019-01-11T07:30:16.010Z,215.6
2019-01-11T07:31:20.214Z,215.3
2019-01-11T07:32:18.900Z,215.4
2019-01-11T07:33:20.542Z,215.2
2019-01-11T07:34:17.569Z,215.4
2019-01-11T07:35:20.019Z,215.2
2019-01-11T07:36:19.749Z,215.1
2019-01-11T07:37:20.158Z,215.3
2019-01-11T07:38:19.575Z,215.1
2019-01-11T07:39:17.348Z,215.1
2019-01-11T07:40:18.143Z,215
2019-01-11T07:41:19.174Z,215
2019-01-11T07:42:20.710Z,215.3
2019-01-11T07:43:16.395Z,215.1
2019-01-11T07:44:20.882Z,215.1
2019-01-11T07:45:16.495Z,215
2019-01-11T07:46:20.860Z,215
2019-01-11T07:47:19.771Z,215.3
2019-01-11T07:48:21.113Z,215.4
2019-01-11T07:49:26.024Z,215.2
2019-01-11T07:50:21.083Z,215.1
2019-01-11T07:51:21.343Z,215.3
2019-01-11T07:52:19.823Z,215.1
2019-01-11T07:53:20.745Z,215.3
2019-01-11T07:54:19.289Z,215.2
2019-01-11T07:55:21.314Z,215.3
2019-01-11T07:56:20.039Z,215.4
2019-01-11T07:57:20.325Z,215.2
2019-01-11T07:58:20.760Z,215.1
2019-01-11T07:59:19.204Z,215
2019-01-11T08:00:19.971Z,215
2019-01-11T08:01:19.057Z,215
2019-01-11T08:02:20.404Z,215.3
2019-01-11T08:03:19.765Z,215.1
2019-01-11T08:04:21.094Z,215.3
2019-01-11T08:05:19.938Z,215.4
2019-01-11T08:06:21.525Z,215.2
2019-01-11T08:07:20.375Z,215.4
2019-01-11T08:08:20.321Z,215.4
2019-01-11T08:09:19.010Z,215.5
2019-01-11T08:10:17.828Z,215.5
2019-01-11T08:12:23.206Z,215
2019-01-11T08:13:22.449Z,215
2019-01-11T08:14:22.853Z,215
2019-01-11T08:15:23.139Z,215
2019-01-11T08:16:22.656Z,215
2019-01-11T08:17:20.589Z,215.3
2019-01-11T08:18:18.474Z,215.1
2019-01-11T08:19:18.522Z,215.1
2019-01-11T08:20:18.468Z,215
2019-01-11T08:21:18.329Z,215
2019-01-11T08:22:18.331Z,215
2019-01-11T08:23:18.403Z,215
2019-01-11T08:24:19.766Z,215
2019-01-11T08:25:18.442Z,215
2019-01-11T08:26:18.424Z,215
2019-01-11T08:27:18.323Z,215
2019-01-11T08:28:18.465Z,215
2019-01-11T08:29:18.388Z,215
2019-01-11T08:30:20.115Z,215
2019-01-11T08:31:18.393Z,215
2019-01-11T08:32:20.771Z,215
2019-01-11T08:33:22.080Z,215.6
2019-01-11T08:34:18.372Z,215.3
2019-01-11T08:35:18.366Z,215.1
2019-01-11T08:36:18.459Z,215.1
2019-01-11T08:37:18.408Z,215
2019-01-11T08:38:18.365Z,215
2019-01-11T08:39:19.262Z,215
2019-01-11T08:40:18.332Z,215
2019-01-11T08:41:18.441Z,215
2019-01-11T08:42:18.393Z,215
2019-01-11T08:43:18.312Z,215
2019-01-11T08:44:18.335Z,215
2019-01-11T08:45:18.420Z,215
2019-01-11T08:46:18.460Z,215
2019-01-11T08:47:18.349Z,215
2019-01-11T08:48:18.463Z,215
2019-01-11T08:49:18.297Z,215
2019-01-11T08:50:18.395Z,215
2019-01-11T08:51:18.401Z,215
2019-01-11T08:52:18.371Z,215
2019-01-11T08:53:18.431Z,215
2019-01-11T08:54:18.574Z,215
2019-01-11T08:55:18.630Z,215.3
2019-01-11T08:56:18.480Z,215.4
2019-01-11T08:57:18.388Z,215.2
2019-01-11T08:58:18.381Z,215.1
2019-01-11T08:59:18.376Z,215
2019-01-11T09:00:18.427Z,215
2019-01-11T09:01:18.364Z,215
2019-01-11T09:02:18.369Z,215
2019-01-11T09:03:18.387Z,215
2019-01-11T09:04:18.361Z,215
2019-01-11T09:05:18.360Z,215
2019-01-11T09:06:18.353Z,215
2019-01-11T09:07:18.453Z,215
2019-01-11T09:08:18.359Z,215
2019-01-11T09:09:18.947Z,215
2019-01-11T09:10:26.035Z,215.3
2019-01-11T09:11:18.405Z,215.1
2019-01-11T09:12:18.335Z,215.1
2019-01-11T09:13:18.628Z,215
2019-01-11T09:14:18.492Z,215
2019-01-11T09:15:18.387Z,215
2019-01-11T09:16:24.236Z,215
2019-01-11T09:17:18.393Z,215
2019-01-11T09:18:18.402Z,215
2019-01-11T09:19:18.365Z,215
2019-01-11T09:20:18.832Z,215
2019-01-11T09:21:18.739Z,215
2019-01-11T09:22:18.321Z,215
2019-01-11T09:23:18.417Z,215
2019-01-11T09:24:18.360Z,215
2019-01-11T09:25:18.350Z,215
2019-01-11T09:26:18.461Z,215
2019-01-11T09:27:18.303Z,215
2019-01-11T09:28:18.451Z,215
2019-01-11T09:29:18.453Z,215
2019-01-11T09:30:18.312Z,215
2019-01-11T09:31:18.364Z,215
2019-01-11T09:32:18.327Z,215
2019-01-11T09:33:24.194Z,215
2019-01-11T09:34:18.470Z,215
2019-01-11T09:35:18.341Z,215
2019-01-11T09:36:18.368Z,215
2019-01-11T09:37:18.357Z,215
2019-01-11T09:38:18.634Z,215
2019-01-11T09:39:18.610Z,215
2019-01-11T09:40:18.387Z,215
2019-01-11T09:41:18.348Z,215
2019-01-11T09:42:19.811Z,215
2019-01-11T09:43:18.518Z,215.3
2019-01-11T09:44:18.345Z,215.1
2019-01-11T09:45:18.377Z,215.1
2019-01-11T09:46:18.427Z,215
2019-01-11T09:47:18.368Z,215
2019-01-11T09:48:18.392Z,215
2019-01-11T09:49:18.314Z,215
2019-01-11T09:50:18.436Z,215
2019-01-11T09:51:19.369Z,215
2019-01-11T09:52:18.353Z,215
2019-01-11T09:53:18.349Z,215
2019-01-11T09:54:18.291Z,215
2019-01-11T09:55:18.411Z,215
2019-01-11T09:56:18.355Z,215
2019-01-11T09:57:18.418Z,215
2019-01-11T09:58:18.351Z,215
2019-01-11T09:59:18.296Z,215
2019-01-11T10:00:18.306Z,215
2019-01-11T10:01:18.408Z,215
2019-01-11T10:02:18.362Z,215
2019-01-11T10:03:18.351Z,215
2019-01-11T10:04:18.347Z,215
2019-01-11T10:05:18.272Z,215
2019-01-11T10:06:18.401Z,215
2019-01-11T10:07:18.353Z,215
2019-01-11T10:08:18.424Z,215
2019-01-11T10:09:18.349Z,215
2019-01-11T10:10:18.291Z,215
2019-01-11T10:11:18.317Z,215
2019-01-11T10:12:18.337Z,215
2019-01-11T10:13:18.410Z,215
2019-01-11T10:14:18.351Z,215
2019-01-11T10:15:18.398Z,215
2019-01-11T10:16:18.275Z,215
2019-01-11T10:17:18.402Z,215
2019-01-11T10:18:18.399Z,215
2019-01-11T10:19:18.334Z,215
2019-01-11T10:20:18.350Z,215
2019-01-11T10:21:25.345Z,215
2019-01-11T10:22:18.330Z,215
2019-01-11T10:23:18.335Z,215
2019-01-11T10:24:18.317Z,215
2019-01-11T10:25:18.335Z,215
2019-01-11T10:26:18.399Z,215
2019-01-11T10:27:18.267Z,215
2019-01-11T10:28:18.329Z,215
2019-01-11T10:29:18.394Z,215
2019-01-11T10:30:18.344Z,215
2019-01-11T10:31:18.400Z,215
2019-01-11T10:32:18.270Z,215
2019-01-11T10:33:18.389Z,215
2019-01-11T10:34:18.387Z,215
2019-01-11T10:35:18.314Z,215
2019-01-11T10:36:18.398Z,215
2019-01-11T10:37:18.349Z,215
2019-01-11T10:38:18.259Z,215
2019-01-11T10:39:18.318Z,215
2019-01-11T10:40:18.323Z,215
2019-01-11T10:41:18.386Z,215
2019-01-11T10:42:18.318Z,215
2019-01-11T10:43:18.276Z,215
2019-01-11T10:44:18.356Z,215
2019-01-11T10:45:18.310Z,215
2019-01-11T10:46:18.378Z,215
2019-01-11T10:47:18.305Z,215
2019-01-11T10:48:18.303Z,215
2019-01-11T10:49:18.300Z,215
2019-01-11T10:50:18.400Z,215
2019-01-11T10:51:27.993Z,215
2019-01-11T10:52:18.310Z,215
2019-01-11T10:53:18.328Z,215
2019-01-11T10:54:18.254Z,215
2019-01-11T10:55:18.394Z,215
2019-01-11T10:56:18.346Z,215
2019-01-11T10:57:18.358Z,215
2019-01-11T10:58:18.326Z,215
2019-01-11T10:59:18.252Z,215
2019-01-11T11:00:18.395Z,215
2019-01-11T11:01:18.309Z,215
2019-01-11T11:02:18.337Z,215
2019-01-11T11:03:18.393Z,215
2019-01-11T11:04:18.316Z,215
2019-01-11T11:05:18.263Z,215
2019-01-11T11:06:18.405Z,215
2019-01-11T11:07:18.321Z,215
2019-01-11T11:08:18.311Z,215
2019-01-11T11:09:18.392Z,215
2019-01-11T11:10:18.227Z,215
2019-01-11T11:11:20.290Z,215
2019-01-11T11:12:18.344Z,215
2019-01-11T11:13:18.324Z,215
2019-01-11T11:14:18.314Z,215
2019-01-11T11:15:18.397Z,215
2019-01-11T11:16:18.244Z,215
2019-01-11T11:17:18.313Z,215
2019-01-11T11:18:18.319Z,215
2019-01-11T11:19:18.316Z,215
2019-01-11T11:20:18.397Z,215
2019-01-11T11:21:18.236Z,215
2019-01-11T11:22:18.236Z,215
2019-01-11T11:23:18.286Z,215
2019-01-11T11:24:18.276Z,215
2019-01-11T11:25:18.390Z,215
2019-01-11T11:26:18.356Z,215
2019-01-11T11:27:18.248Z,215
2019-01-11T11:28:18.316Z,215
2019-01-11T11:29:18.346Z,215
2019-01-11T11:30:18.371Z,215
2019-01-11T11:31:18.283Z,215
2019-01-11T11:32:18.223Z,215
2019-01-11T11:33:18.276Z,215
2019-01-11T11:34:18.354Z,215
2019-01-11T11:35:18.290Z,215
2019-01-11T11:36:18.313Z,215
2019-01-11T11:37:21.378Z,215
2019-01-11T11:38:18.275Z,215
2019-01-11T11:39:18.356Z,215
2019-01-11T11:40:18.298Z,215
2019-01-11T11:41:18.294Z,215
2019-01-11T11:42:20.413Z,215
2019-01-11T11:43:18.215Z,215
2019-01-11T11:44:18.444Z,215
2019-01-11T11:45:18.350Z,215
2019-01-11T11:46:18.283Z,215
2019-01-11T11:47:18.310Z,215
2019-01-11T11:48:18.249Z,215
2019-01-11T11:49:18.290Z,215
2019-01-11T11:50:18.304Z,215
2019-01-11T11:51:18.306Z,215
2019-01-11T11:52:18.298Z,215
2019-01-11T11:53:18.303Z,215
2019-01-11T11:54:18.292Z,215
2019-01-11T11:55:18.279Z,215
2019-01-11T11:56:18.282Z,215
2019-01-11T11:57:18.280Z,215
2019-01-11T11:58:18.341Z,215
2019-01-11T11:59:18.239Z,215
2019-01-11T12:00:18.285Z,215
2019-01-11T12:01:18.292Z,215
2019-01-11T12:02:22.827Z,215
2019-01-11T12:03:18.294Z,215
2019-01-11T12:04:18.257Z,215
2019-01-11T12:05:18.219Z,215
2019-01-11T12:06:18.271Z,215
2019-01-11T12:07:18.357Z,215
2019-01-11T12:08:18.275Z,215
2019-01-11T12:09:18.362Z,215
2019-01-11T12:10:18.217Z,215
2019-01-11T12:11:18.292Z,215
2019-01-11T12:12:18.248Z,215
2019-01-11T12:13:18.359Z,215
2019-01-11T12:14:18.288Z,215
2019-01-11T12:15:18.337Z,215
2019-01-11T12:16:18.194Z,215
2019-01-11T12:17:18.261Z,215
2019-01-11T12:18:18.255Z,215
2019-01-11T12:19:18.242Z,215
2019-01-11T12:20:18.336Z,215
2019-01-11T12:21:18.222Z,215
2019-01-11T12:22:18.295Z,215
2019-01-11T12:23:18.270Z,215
2019-01-11T12:24:18.263Z,215
2019-01-11T12:25:18.375Z,215
2019-01-11T12:26:18.257Z,215
2019-01-11T12:27:20.613Z,215
2019-01-11T12:28:18.432Z,215
2019-01-11T12:29:18.485Z,215
2019-01-11T12:30:18.454Z,215
2019-01-11T12:31:18.476Z,215
2019-01-11T12:32:23.158Z,215
2019-01-11T12:33:18.445Z,215
2019-01-11T12:34:18.394Z,215
2019-01-11T12:35:18.454Z,215
2019-01-11T12:36:18.433Z,215
2019-01-11T12:37:19.350Z,215
2019-01-11T12:38:18.344Z,215
2019-01-11T12:39:18.426Z,215
2019-01-11T12:40:18.364Z,215
2019-01-11T12:41:18.475Z,215
2019-01-11T12:42:18.590Z,215
2019-01-11T12:43:18.487Z,215
2019-01-11T12:44:18.266Z,215
2019-01-11T12:45:18.227Z,215
2019-01-11T12:46:18.258Z,215
2019-01-11T12:47:18.255Z,215
2019-01-11T12:48:18.277Z,215
2019-01-11T12:49:18.186Z,215
2019-01-11T12:50:18.488Z,215
2019-01-11T12:51:18.225Z,215
2019-01-11T12:52:18.241Z,215
2019-01-11T12:53:18.244Z,215
2019-01-11T12:54:18.174Z,215
2019-01-11T12:55:18.249Z,215
2019-01-11T12:56:18.243Z,215
2019-01-11T12:57:18.233Z,215
2019-01-11T12:58:18.316Z,215
2019-01-11T12:59:18.199Z,215
2019-01-11T13:00:18.259Z,215
2019-01-11T13:01:18.598Z,215
2019-01-11T13:02:18.421Z,215
2019-01-11T13:03:18.482Z,215
2019-01-11T13:04:18.442Z,215
2019-01-11T13:05:18.386Z,215
2019-01-11T13:06:18.484Z,215
2019-01-11T13:07:18.410Z,215
2019-01-11T13:08:18.252Z,215
2019-01-11T13:09:18.454Z,215
2019-01-11T13:10:18.371Z,215
2019-01-11T13:11:18.246Z,215
2019-01-11T13:12:18.223Z,213.5
2019-01-11T13:13:18.261Z,258.8
2019-01-11T13:14:18.302Z,259.9
2019-01-11T13:15:18.250Z,259.9
2019-01-11T13:16:18.231Z,239.5
2019-01-11T13:17:19.957Z,225.8
2019-01-11T13:18:18.423Z,219.8
2019-01-11T13:19:18.483Z,238.2
2019-01-11T13:20:18.628Z,250.2
2019-01-11T13:21:18.352Z,255.5
2019-01-11T13:22:18.410Z,257.9
2019-01-11T13:23:18.511Z,243.1
2019-01-11T13:24:18.458Z,227.6
2019-01-11T13:25:18.388Z,220.7
2019-01-11T13:26:22.402Z,217.6
2019-01-11T13:27:18.406Z,216.5
2019-01-11T13:28:18.410Z,215.7
2019-01-11T13:29:18.367Z,215.3
2019-01-11T13:30:18.450Z,215.2
2019-01-11T13:31:18.494Z,215.1
2019-01-11T13:32:18.357Z,215
2019-01-11T13:33:18.366Z,215
2019-01-11T13:34:18.370Z,215
2019-01-11T13:35:18.409Z,215
2019-01-11T13:36:18.464Z,215